createdAt,value
2023-11-14T00:00:43.068Z,22.00
2023-11-14T00:03:10.187Z,22.20
2023-11-14T00:05:37.277Z,21.90
2023-11-14T00:08:04.487Z,21.90
2023-11-14T00:10:31.535Z,21.90
2023-11-14T00:12:58.630Z,21.90
2023-11-14T00:15:27.501Z,21.80
2023-11-14T00:17:54.839Z,22.00
2023-11-14T00:20:21.763Z,22.10
2023-11-14T00:22:48.822Z,22.40
2023-11-14T00:25:15.878Z,22.30
2023-11-14T00:27:42.823Z,22.30
2023-11-14T00:30:10.326Z,22.60
2023-11-14T00:32:37.362Z,22.50
2023-11-14T00:35:04.653Z,22.20
2023-11-14T00:37:31.696Z,21.80
2023-11-14T00:39:58.637Z,21.70
2023-11-14T00:42:25.623Z,21.40
2023-11-14T00:44:52.555Z,21.20
2023-11-14T00:47:19.507Z,21.60
2023-11-14T00:49:46.441Z,21.70
2023-11-14T00:52:13.462Z,21.60
2023-11-14T00:54:40.338Z,21.60
2023-11-14T00:57:07.537Z,21.60
2023-11-14T00:59:34.521Z,21.30
2023-11-14T01:02:01.557Z,21.40
2023-11-14T01:04:28.523Z,21.40
2023-11-14T01:06:55.470Z,21.70
2023-11-14T01:09:22.625Z,22.00
2023-11-14T01:11:50.010Z,22.20
2023-11-14T01:14:16.970Z,22.40
2023-11-14T01:16:43.954Z,22.70
2023-11-14T01:19:10.964Z,23.10
2023-11-14T01:21:38.018Z,23.30
2023-11-14T01:24:05.297Z,23.40
2023-11-14T01:26:35.698Z,23.70
2023-11-14T01:29:02.906Z,23.80
2023-11-14T01:31:29.860Z,23.80
2023-11-14T01:33:56.836Z,24.00
2023-11-14T01:36:24.096Z,24.10
2023-11-14T01:38:51.554Z,24.20
2023-11-14T01:41:18.498Z,24.00
2023-11-14T01:43:49.058Z,23.80
2023-11-14T01:46:17.979Z,23.80
2023-11-14T01:48:49.676Z,23.80
2023-11-14T01:51:17.805Z,24.00
2023-11-14T01:53:44.912Z,23.80
2023-11-14T01:56:12.831Z,23.80
2023-11-14T01:58:39.875Z,23.80
2023-11-14T02:01:06.976Z,24.00
2023-11-14T02:03:34.066Z,23.90
2023-11-14T02:06:01.699Z,23.90
2023-11-14T02:08:32.170Z,23.80
2023-11-14T02:10:59.874Z,23.80
2023-11-14T02:13:27.175Z,23.70
2023-11-14T02:15:54.212Z,23.80
2023-11-14T02:18:21.599Z,23.90
2023-11-14T02:20:48.510Z,24.10
2023-11-14T02:23:18.798Z,24.10
2023-11-14T02:25:46.601Z,24.00
2023-11-14T02:28:13.721Z,24.00
2023-11-14T02:30:40.801Z,23.80
2023-11-14T02:33:08.872Z,23.70
2023-11-14T02:35:35.950Z,23.60
2023-11-14T02:38:03.532Z,23.80
2023-11-14T02:40:30.541Z,23.70
2023-11-14T02:42:57.510Z,23.60
2023-11-14T02:45:24.456Z,23.50
2023-11-14T02:47:51.481Z,23.60
2023-11-14T02:50:30.631Z,23.60
2023-11-14T02:52:57.581Z,23.50
2023-11-14T02:55:24.468Z,23.30
2023-11-14T02:57:51.429Z,23.20
2023-11-14T03:00:18.532Z,23.00
2023-11-14T03:02:45.650Z,22.80
2023-11-14T03:05:12.854Z,23.00
2023-11-14T03:07:39.876Z,23.40
2023-11-14T03:10:07.571Z,23.40
2023-11-14T03:12:34.538Z,23.20
2023-11-14T03:15:01.618Z,23.40
2023-11-14T03:17:28.553Z,23.50
2023-11-14T03:19:55.511Z,23.40
2023-11-14T03:22:22.434Z,23.30
2023-11-14T03:24:49.362Z,23.00
2023-11-14T03:27:16.308Z,22.90
2023-11-14T03:29:43.233Z,23.00
2023-11-14T03:32:10.197Z,22.60
2023-11-14T03:34:37.162Z,22.30
2023-11-14T03:37:04.294Z,22.00
2023-11-14T03:39:31.174Z,22.00
2023-11-14T03:41:58.086Z,22.00
2023-11-14T03:44:25.034Z,22.30
2023-11-14T03:46:51.992Z,22.50
2023-11-14T03:49:18.930Z,22.30
2023-11-14T03:51:45.824Z,22.60
2023-11-14T03:54:12.735Z,22.40
2023-11-14T03:56:39.643Z,22.20
2023-11-14T03:59:06.575Z,22.40
2023-11-14T04:01:33.561Z,22.70
2023-11-14T04:04:00.652Z,22.90
2023-11-14T04:06:27.553Z,23.00
2023-11-14T04:08:54.529Z,23.10
2023-11-14T04:11:21.519Z,23.30
2023-11-14T04:13:48.547Z,23.60
2023-11-14T04:16:15.490Z,23.80
2023-11-14T04:18:42.437Z,23.90
2023-11-14T04:21:10.387Z,23.70
2023-11-14T04:23:37.495Z,23.70
2023-11-14T04:26:04.556Z,23.10
2023-11-14T04:28:31.508Z,22.80
2023-11-14T04:30:58.438Z,23.00
2023-11-14T04:33:25.444Z,23.40
2023-11-14T04:35:52.324Z,23.40
2023-11-14T04:38:19.217Z,23.30
2023-11-14T04:40:46.165Z,23.20
2023-11-14T04:43:13.094Z,23.30
2023-11-14T04:45:39.981Z,23.50
2023-11-14T04:48:07.083Z,23.20
2023-11-14T04:50:33.984Z,23.10
2023-11-14T04:53:00.886Z,23.00
2023-11-14T04:55:27.805Z,23.00
2023-11-14T04:57:54.687Z,22.80
2023-11-14T05:00:21.631Z,22.60
2023-11-14T05:02:48.639Z,22.60
2023-11-14T05:05:15.710Z,22.60
2023-11-14T05:07:42.627Z,22.30
2023-11-14T05:10:10.836Z,22.10
2023-11-14T05:12:37.990Z,22.00
2023-11-14T05:15:05.202Z,22.00
2023-11-14T05:17:32.204Z,22.30
2023-11-14T05:19:59.162Z,22.40
2023-11-14T05:22:26.397Z,22.50
2023-11-14T05:24:53.318Z,22.60
2023-11-14T05:27:20.881Z,23.00
2023-11-14T05:29:47.794Z,23.00
2023-11-14T05:32:14.742Z,22.90
2023-11-14T05:34:41.717Z,22.80
2023-11-14T05:37:08.800Z,22.80
2023-11-14T05:39:35.759Z,22.70
2023-11-14T05:42:02.693Z,22.60
2023-11-14T05:44:30.674Z,22.30
2023-11-14T05:46:57.669Z,22.60
2023-11-14T05:49:24.710Z,22.80
2023-11-14T05:51:51.642Z,23.20
2023-11-14T05:54:18.559Z,22.90
2023-11-14T05:56:45.513Z,22.60
2023-11-14T05:59:12.452Z,22.70
2023-11-14T06:01:39.463Z,22.70
2023-11-14T06:04:06.791Z,22.50
2023-11-14T06:06:33.808Z,22.50
2023-11-14T06:09:00.702Z,22.40
2023-11-14T06:11:27.676Z,22.10
2023-11-14T06:13:54.650Z,22.40
2023-11-14T06:16:22.674Z,22.40
2023-11-14T06:18:50.740Z,21.90
2023-11-14T06:21:17.668Z,21.70
2023-11-14T06:23:44.575Z,21.60
2023-11-14T06:26:11.516Z,21.50
2023-11-14T06:28:38.497Z,21.50
2023-11-14T06:31:05.422Z,21.90
2023-11-14T06:33:32.690Z,22.30
2023-11-14T06:36:00.425Z,22.50
2023-11-14T06:38:28.075Z,22.40
2023-11-14T06:40:55.991Z,22.20
2023-11-14T06:43:22.999Z,22.00
2023-11-14T06:45:50.057Z,21.50
2023-11-14T06:48:17.178Z,21.50
2023-11-14T06:50:45.279Z,21.60
2023-11-14T06:53:13.378Z,21.70
2023-11-14T06:55:41.415Z,22.00
2023-11-14T06:58:08.387Z,21.80
2023-11-14T07:00:35.352Z,21.70
2023-11-14T07:03:02.362Z,22.10
2023-11-14T07:05:29.331Z,22.00
2023-11-14T07:07:56.755Z,22.20
2023-11-14T07:10:23.833Z,22.10
2023-11-14T07:12:50.970Z,22.10
2023-11-14T07:15:17.929Z,22.10
2023-11-14T07:17:44.986Z,22.00
2023-11-14T07:20:12.626Z,22.10
2023-11-14T07:22:42.632Z,21.70
2023-11-14T07:25:10.093Z,22.00
2023-11-14T07:27:37.393Z,21.80
2023-11-14T07:30:04.642Z,21.50
2023-11-14T07:32:31.587Z,21.40
2023-11-14T07:34:58.641Z,21.50
2023-11-14T07:37:25.550Z,21.20
2023-11-14T07:39:54.479Z,21.40
2023-11-14T07:42:23.760Z,21.30
2023-11-14T07:44:51.214Z,21.30
2023-11-14T07:47:21.210Z,21.60
2023-11-14T07:49:48.853Z,21.40
2023-11-14T07:52:15.909Z,21.30
2023-11-14T07:54:42.866Z,21.30
2023-11-14T07:57:09.761Z,21.40
2023-11-14T07:59:36.660Z,21.50
2023-11-14T08:02:03.780Z,21.30
2023-11-14T08:04:30.793Z,21.80
2023-11-14T08:06:57.878Z,22.20
2023-11-14T08:09:24.926Z,22.50
2023-11-14T08:11:51.823Z,22.40
2023-11-14T08:14:18.775Z,22.40
2023-11-14T08:16:45.784Z,22.50
2023-11-14T08:19:12.873Z,22.60
2023-11-14T08:21:39.805Z,22.70
2023-11-14T08:24:06.891Z,22.60
2023-11-14T08:26:33.818Z,22.60
2023-11-14T08:29:00.781Z,22.40
2023-11-14T08:31:27.822Z,22.50
2023-11-14T08:33:54.870Z,22.80
2023-11-14T08:36:21.844Z,22.80
2023-11-14T08:38:48.798Z,22.50
2023-11-14T08:41:15.748Z,22.50
2023-11-14T08:43:42.825Z,22.50
2023-11-14T08:46:09.753Z,22.50
2023-11-14T08:48:36.768Z,22.60
2023-11-14T08:51:03.825Z,22.90
2023-11-14T08:53:30.983Z,23.00
2023-11-14T08:55:57.915Z,23.10
2023-11-14T08:58:24.909Z,22.80
2023-11-14T09:00:51.998Z,22.80
2023-11-14T09:03:19.013Z,23.00
2023-11-14T09:05:45.987Z,23.10
2023-11-14T09:08:13.041Z,22.90
2023-11-14T09:10:40.046Z,23.00
2023-11-14T09:13:06.962Z,22.70
2023-11-14T09:15:33.966Z,22.80
2023-11-14T09:18:01.216Z,22.60
2023-11-14T09:20:28.318Z,22.40
2023-11-14T09:22:57.897Z,22.30
2023-11-14T09:25:26.497Z,22.30
2023-11-14T09:27:53.481Z,22.40
2023-11-14T09:30:21.034Z,22.70
2023-11-14T09:32:48.400Z,22.60
2023-11-14T09:35:17.057Z,22.50
2023-11-14T09:37:44.394Z,22.80
2023-11-14T09:40:15.310Z,22.50
2023-11-14T09:42:42.331Z,22.30
2023-11-14T09:45:09.793Z,22.30
2023-11-14T09:47:36.848Z,22.40
2023-11-14T09:50:04.589Z,22.50
2023-11-14T09:52:32.645Z,22.00
2023-11-14T09:54:59.908Z,21.90
2023-11-14T09:57:27.432Z,22.30
2023-11-14T09:59:54.998Z,22.90
2023-11-14T10:02:21.973Z,23.00
2023-11-14T10:04:49.102Z,23.20
2023-11-14T10:07:19.821Z,22.90
2023-11-14T10:09:48.225Z,23.00
2023-11-14T10:12:38.175Z,23.10
2023-11-14T10:15:05.947Z,23.10
2023-11-14T10:17:44.242Z,22.80
2023-11-14T10:20:12.038Z,22.60
2023-11-14T10:22:49.831Z,22.90
2023-11-14T10:25:46.234Z,22.50
2023-11-14T10:28:13.155Z,22.90
2023-11-14T10:30:46.029Z,23.20
2023-11-14T10:33:14.058Z,23.00
2023-11-14T10:35:41.824Z,23.00
2023-11-14T10:38:23.159Z,23.30
2023-11-14T10:40:55.733Z,23.60
2023-11-14T10:43:30.193Z,23.90
2023-11-14T10:45:59.870Z,24.30
2023-11-14T10:48:27.267Z,23.90
2023-11-14T10:50:54.639Z,24.00
2023-11-14T10:53:22.220Z,23.90
2023-11-14T10:55:52.406Z,23.80
2023-11-14T10:58:20.751Z,23.80
2023-11-14T11:00:48.205Z,23.90
2023-11-14T11:03:15.822Z,24.10
2023-11-14T11:05:43.120Z,24.00
2023-11-14T11:08:12.059Z,23.70
2023-11-14T11:10:41.271Z,23.50
2023-11-14T11:13:12.552Z,23.60
2023-11-14T11:15:46.090Z,23.30
2023-11-14T11:18:13.707Z,23.20
2023-11-14T11:20:41.038Z,23.20
2023-11-14T11:23:13.222Z,23.40
2023-11-14T11:25:41.457Z,23.70
2023-11-14T11:28:20.720Z,23.60
2023-11-14T11:31:06.348Z,23.70
2023-11-14T11:33:33.865Z,23.40
2023-11-14T11:36:22.538Z,23.50
2023-11-14T11:39:04.534Z,23.40
2023-11-14T11:41:33.248Z,23.40
2023-11-14T11:44:09.068Z,23.80
2023-11-14T11:46:40.244Z,24.10
2023-11-14T11:49:10.415Z,23.80
2023-11-14T11:51:41.957Z,23.60
2023-11-14T11:54:27.955Z,23.70
2023-11-14T11:57:07.193Z,23.50
2023-11-14T11:59:43.733Z,23.70
2023-11-14T12:02:16.232Z,24.00
2023-11-14T12:04:43.374Z,24.30
2023-11-14T12:07:10.547Z,24.70
2023-11-14T12:09:38.236Z,24.70
2023-11-14T12:12:05.513Z,24.60
2023-11-14T12:14:32.929Z,24.80
2023-11-14T12:17:00.607Z,24.40
2023-11-14T12:19:27.770Z,24.10
2023-11-14T12:21:55.946Z,23.70
2023-11-14T12:24:22.987Z,23.80
2023-11-14T12:26:50.370Z,24.00
2023-11-14T12:29:18.945Z,24.10
2023-11-14T12:31:48.226Z,23.80
2023-11-14T12:34:28.488Z,23.80
2023-11-14T12:37:15.455Z,24.10
2023-11-14T12:39:42.446Z,23.40
2023-11-14T12:42:09.475Z,23.20
2023-11-14T12:44:37.214Z,23.40
2023-11-14T12:47:05.032Z,23.70
2023-11-14T12:49:31.990Z,23.80
2023-11-14T12:51:59.850Z,23.50
2023-11-14T12:54:27.018Z,23.50
2023-11-14T12:56:55.023Z,23.90
2023-11-14T12:59:22.511Z,23.50
2023-11-14T13:01:52.532Z,23.60
2023-11-14T13:04:19.758Z,23.90
2023-11-14T13:06:48.292Z,23.90
2023-11-14T13:09:16.899Z,23.90
2023-11-14T13:11:44.480Z,24.30
2023-11-14T13:14:11.492Z,23.80
2023-11-14T13:16:38.539Z,23.50
2023-11-14T13:19:05.760Z,23.60
2023-11-14T13:21:32.982Z,23.50
2023-11-14T13:23:59.962Z,23.60
2023-11-14T13:26:26.957Z,23.60
2023-11-14T13:28:53.913Z,23.80
2023-11-14T13:31:20.803Z,24.10
2023-11-14T13:33:48.013Z,24.00
2023-11-14T13:36:15.408Z,24.00
2023-11-14T13:38:42.436Z,24.00
2023-11-14T13:43:39.143Z,23.50
2023-11-14T13:46:10.883Z,23.30
2023-11-14T13:48:41.900Z,23.70
2023-11-14T13:51:08.923Z,23.70
2023-11-14T13:53:35.886Z,23.60
2023-11-14T13:56:02.933Z,24.10
2023-11-14T13:58:29.880Z,23.90
2023-11-14T14:00:56.834Z,24.00
2023-11-14T14:03:23.873Z,24.30
2023-11-14T14:05:50.849Z,24.30
2023-11-14T14:08:17.830Z,24.10
2023-11-14T14:10:44.749Z,23.80
2023-11-14T14:13:11.777Z,24.00
2023-11-14T14:15:38.662Z,24.40
2023-11-14T14:18:05.870Z,24.50
2023-11-14T14:20:32.953Z,24.50
2023-11-14T14:22:59.929Z,24.30
2023-11-14T14:25:26.804Z,24.10
2023-11-14T14:27:53.813Z,24.00
2023-11-14T14:30:20.749Z,23.60
2023-11-14T14:32:47.682Z,23.10
2023-11-14T14:35:15.089Z,23.40
2023-11-14T14:37:42.509Z,23.90
2023-11-14T14:40:10.474Z,24.00
2023-11-14T14:42:38.394Z,23.30
2023-11-14T14:45:10.455Z,23.40
2023-11-14T14:47:41.183Z,23.40
2023-11-14T14:50:09.995Z,23.70
2023-11-14T14:52:36.982Z,23.40
2023-11-14T14:55:04.726Z,22.80
2023-11-14T14:57:32.162Z,23.50
2023-11-14T14:59:59.067Z,23.20
2023-11-14T15:02:26.184Z,23.70
2023-11-14T15:04:53.488Z,23.90
2023-11-14T15:07:20.528Z,24.10
2023-11-14T15:09:47.611Z,24.30
2023-11-14T15:12:14.557Z,24.30
2023-11-14T15:14:41.501Z,24.10
2023-11-14T15:17:08.960Z,23.90
2023-11-14T15:19:35.902Z,24.00
2023-11-14T15:22:03.024Z,24.00
2023-11-14T15:24:29.941Z,24.00
2023-11-14T15:26:57.919Z,23.70
2023-11-14T15:29:25.267Z,23.50
2023-11-14T15:31:52.172Z,23.70
2023-11-14T15:34:19.313Z,23.80
2023-11-14T15:36:46.233Z,24.00
2023-11-14T15:39:13.298Z,24.30
2023-11-14T15:41:40.206Z,24.30
2023-11-14T15:44:07.197Z,23.90
2023-11-14T15:46:34.271Z,23.70
2023-11-14T15:49:01.828Z,23.30
2023-11-14T15:51:28.754Z,23.30
2023-11-14T15:53:55.684Z,23.70
2023-11-14T15:56:22.783Z,23.50
2023-11-14T15:58:49.802Z,23.60
2023-11-14T16:01:16.762Z,24.00
2023-11-14T16:03:43.921Z,24.20
2023-11-14T16:06:11.034Z,24.60
2023-11-14T16:08:37.994Z,25.10
2023-11-14T16:11:05.070Z,24.50
2023-11-14T16:13:32.030Z,23.80
2023-11-14T16:15:59.173Z,23.80
2023-11-14T16:18:26.227Z,23.80
2023-11-14T16:20:53.253Z,23.80
2023-11-14T16:23:20.187Z,23.70
2023-11-14T16:25:47.194Z,23.80
2023-11-14T16:28:14.461Z,24.10
2023-11-14T16:30:41.479Z,24.30
2023-11-14T16:33:08.774Z,24.30
2023-11-14T16:35:35.775Z,24.20
2023-11-14T16:38:02.890Z,24.10
2023-11-14T16:40:29.844Z,23.70
2023-11-14T16:42:57.056Z,23.70
2023-11-14T16:45:23.998Z,23.80
2023-11-14T16:47:51.282Z,23.80
2023-11-14T16:50:18.911Z,23.20
2023-11-14T16:52:45.929Z,23.10
2023-11-14T16:55:12.926Z,23.40
2023-11-14T16:57:39.872Z,23.10
2023-11-14T17:00:07.505Z,23.00
2023-11-14T17:02:35.124Z,23.50
2023-11-14T17:05:02.591Z,23.90
2023-11-14T17:07:29.640Z,23.80
2023-11-14T17:09:56.798Z,23.70
2023-11-14T17:12:23.692Z,23.40
2023-11-14T17:14:50.844Z,23.50
2023-11-14T17:17:17.833Z,23.60
2023-11-14T17:19:44.763Z,23.70
2023-11-14T17:22:11.742Z,23.70
2023-11-14T17:24:38.763Z,23.80
2023-11-14T17:27:05.745Z,23.80
2023-11-14T17:29:32.704Z,23.60
2023-11-14T17:31:59.752Z,23.80
2023-11-14T17:34:27.211Z,23.80
2023-11-14T17:36:54.103Z,23.80
2023-11-14T17:39:21.019Z,23.90
2023-11-14T17:41:47.922Z,23.80
2023-11-14T17:44:14.887Z,23.70
2023-11-14T17:46:41.895Z,23.50
2023-11-14T17:49:08.843Z,23.60
2023-11-14T17:51:38.863Z,23.60
2023-11-14T17:54:07.037Z,23.30
2023-11-14T17:56:34.255Z,23.00
2023-11-14T17:59:01.256Z,23.40
2023-11-14T18:01:28.816Z,23.10
2023-11-14T18:03:56.033Z,23.20
2023-11-14T18:06:23.254Z,23.40
2023-11-14T18:08:50.175Z,23.60
2023-11-14T18:11:17.120Z,23.40
2023-11-14T18:13:44.098Z,23.60
2023-11-14T18:16:11.085Z,23.20
2023-11-14T18:18:38.074Z,23.10
2023-11-14T18:21:05.267Z,23.40
2023-11-14T18:23:32.254Z,23.90
2023-11-14T18:25:59.314Z,24.00
2023-11-14T18:28:26.274Z,23.80
2023-11-14T18:30:54.108Z,23.50
2023-11-14T18:33:22.400Z,23.60
2023-11-14T18:35:49.289Z,23.60
2023-11-14T18:38:16.245Z,23.90
2023-11-14T18:40:43.372Z,24.20
2023-11-14T18:43:10.304Z,24.30
2023-11-14T18:45:37.219Z,24.40
2023-11-14T18:48:04.491Z,23.90
2023-11-14T18:50:31.507Z,23.70
2023-11-14T18:52:58.421Z,23.40
2023-11-14T18:55:25.372Z,23.70
2023-11-14T18:57:52.300Z,23.90
2023-11-14T19:00:19.437Z,24.10
2023-11-14T19:02:46.600Z,23.70
2023-11-14T19:05:15.270Z,23.60
2023-11-14T19:07:43.368Z,23.70
2023-11-14T19:10:10.493Z,24.10
2023-11-14T19:12:37.477Z,24.00
2023-11-14T19:15:04.757Z,23.90
2023-11-14T19:17:31.859Z,23.80
2023-11-14T19:19:59.008Z,24.00
2023-11-14T19:23:08.633Z,24.20
2023-11-14T19:25:12.835Z,23.80
2023-11-14T19:27:39.750Z,24.40
2023-11-14T19:30:07.392Z,24.20
2023-11-14T19:32:34.356Z,24.30
2023-11-14T19:35:01.297Z,24.70
2023-11-14T19:37:28.217Z,24.40
2023-11-14T19:39:55.161Z,23.80
2023-11-14T19:42:22.084Z,23.90
2023-11-14T19:44:49.235Z,24.10
2023-11-14T19:47:16.207Z,24.40
2023-11-14T19:49:45.337Z,24.30
2023-11-14T19:52:13.972Z,24.20
2023-11-14T19:54:41.194Z,23.90
2023-11-14T19:57:08.193Z,23.60
2023-11-14T19:59:35.152Z,23.80
2023-11-14T20:02:02.146Z,24.10
2023-11-14T20:04:29.124Z,24.00
2023-11-14T20:06:56.533Z,23.90
2023-11-14T20:09:23.527Z,24.10
2023-11-14T20:11:50.562Z,23.90
2023-11-14T20:14:17.607Z,23.60
2023-11-14T20:16:44.626Z,23.60
2023-11-14T20:19:11.561Z,23.40
2023-11-14T20:21:38.488Z,23.40
2023-11-14T20:24:05.825Z,23.00
2023-11-14T20:26:32.827Z,22.90
2023-11-14T20:28:59.825Z,22.90
2023-11-14T20:31:26.787Z,23.10
2023-11-14T20:33:53.710Z,23.10
2023-11-14T20:36:20.617Z,23.00
2023-11-14T20:38:47.588Z,22.90
2023-11-14T20:41:15.684Z,22.90
2023-11-14T20:43:42.653Z,22.80
2023-11-14T20:46:09.698Z,22.70
2023-11-14T20:48:36.890Z,22.90
2023-11-14T20:51:06.506Z,23.10
2023-11-14T20:53:35.539Z,23.20
2023-11-14T20:56:02.485Z,23.20
2023-11-14T20:58:29.403Z,23.20
2023-11-14T21:00:56.293Z,23.10
2023-11-14T21:03:23.380Z,23.20
2023-11-14T21:05:50.750Z,23.70
2023-11-14T21:08:17.749Z,23.70
2023-11-14T21:10:44.812Z,23.90
2023-11-14T21:13:11.881Z,24.10
2023-11-14T21:15:38.782Z,23.80
2023-11-14T21:18:06.005Z,24.00
2023-11-14T21:20:33.031Z,24.20
2023-11-14T21:22:59.959Z,24.40
2023-11-14T21:25:26.892Z,24.40
2023-11-14T21:27:53.855Z,24.20
2023-11-14T21:30:20.927Z,24.00
2023-11-14T21:32:47.959Z,23.80
2023-11-14T21:35:15.513Z,23.50
2023-11-14T21:37:42.460Z,23.70
2023-11-14T21:40:10.060Z,24.00
2023-11-14T21:42:36.968Z,24.10
2023-11-14T21:45:04.236Z,24.30
2023-11-14T21:47:31.239Z,24.60
2023-11-14T21:49:58.177Z,24.70
2023-11-14T21:52:25.091Z,24.80
2023-11-14T21:54:52.376Z,24.80
2023-11-14T21:57:19.266Z,24.70
2023-11-14T21:59:46.374Z,24.60
2023-11-14T22:02:13.422Z,24.70
2023-11-14T22:04:40.372Z,24.60
2023-11-14T22:07:07.277Z,24.70
2023-11-14T22:09:34.399Z,24.90
2023-11-14T22:12:01.304Z,24.80
2023-11-14T22:14:28.629Z,24.60
2023-11-14T22:16:55.556Z,24.70
2023-11-14T22:19:22.456Z,24.60
2023-11-14T22:21:49.399Z,24.70
2023-11-14T22:24:16.292Z,24.60
2023-11-14T22:26:43.224Z,24.70
2023-11-14T22:29:10.159Z,24.70
2023-11-14T22:31:37.115Z,24.70
2023-11-14T22:34:04.096Z,24.60
2023-11-14T22:36:30.987Z,24.30
2023-11-14T22:38:57.876Z,23.90
2023-11-14T22:41:24.855Z,23.80
2023-11-14T22:43:51.778Z,24.20
2023-11-14T22:46:21.936Z,24.20
2023-11-14T22:48:48.971Z,23.80
2023-11-14T22:51:15.892Z,23.80
2023-11-14T22:53:42.831Z,23.70
2023-11-14T22:56:30.094Z,23.60
2023-11-14T22:58:56.994Z,23.60
2023-11-14T23:01:24.020Z,23.90
2023-11-14T23:03:51.095Z,24.10
2023-11-14T23:06:18.118Z,24.30
2023-11-14T23:08:45.111Z,23.80
2023-11-14T23:11:12.069Z,23.90
2023-11-14T23:13:39.088Z,24.20
2023-11-14T23:16:06.632Z,24.70
2023-11-14T23:18:33.827Z,25.10
2023-11-14T23:21:00.929Z,25.00
2023-11-14T23:23:28.082Z,25.00
2023-11-14T23:25:55.156Z,25.10
2023-11-14T23:28:22.144Z,25.10
2023-11-14T23:30:49.232Z,25.10
2023-11-14T23:33:16.215Z,25.20
2023-11-14T23:35:43.309Z,25.60
2023-11-14T23:38:10.741Z,25.80
2023-11-14T23:40:37.870Z,25.70
2023-11-14T23:43:04.801Z,25.60
2023-11-14T23:45:31.795Z,25.40
2023-11-14T23:47:58.759Z,25.40
2023-11-14T23:50:25.697Z,25.50
2023-11-14T23:52:52.734Z,25.30
2023-11-14T23:55:19.755Z,25.40
2023-11-14T23:57:46.745Z,25.40
